Time;durP1;ratioP1;P1;durP2;ratioP2;P2;SDS_P1;SDS_P2;PMS_P1;PMS_P2;Temp;Humidity;BMP_temperature;BMP_pressure;BME280_temperature;BME280_humidity;BME280_pressure;Samples;Min_cycle;Max_cycle;Signal;HPM_P1;HPM_P2
2023/06/04 00:02:01;;;;;;;5.35;3.13;;;;;;;18.51;36.02;99241.34;5146807;28;20057;-76
2023/06/04 00:04:27;;;;;;;5.18;2.90;;;;;;;18.48;36.50;99231.72;5146178;27;20055;-76
2023/06/04 00:06:56;;;;;;;6.43;3.55;;;;;;;18.46;36.29;99241.75;5145382;28;20049;-75
2023/06/04 00:09:23;;;;;;;4.53;3.03;;;;;;;18.39;36.21;99235.22;5146618;28;20057;-76
2023/06/04 00:11:50;;;;;;;6.28;3.10;;;;;;;18.35;36.80;99230.28;5146402;28;20080;-76
2023/06/04 00:14:17;;;;;;;5.93;3.20;;;;;;;18.28;36.45;99229.97;5146982;28;20038;-76
2023/06/04 00:16:44;;;;;;;3.83;2.80;;;;;;;18.03;36.65;99190.22;5146421;28;20043;-75
2023/06/04 00:19:10;;;;;;;4.50;2.85;;;;;;;18.27;36.92;99234.50;5146589;28;20043;-76
2023/06/04 00:21:37;;;;;;;4.97;3.10;;;;;;;18.26;36.56;99226.56;5146908;28;20039;-76
2023/06/04 00:24:06;;;;;;;4.93;2.85;;;;;;;18.22;36.93;99230.53;5146711;28;20047;-75
2023/06/04 00:26:34;;;;;;;4.32;2.92;;;;;;;18.20;36.88;99238.69;5146373;27;20106;-76
2023/06/04 00:29:01;;;;;;;4.90;2.90;;;;;;;18.15;37.16;99226.69;5145383;28;20035;-76
2023/06/04 00:31:28;;;;;;;3.88;2.85;;;;;;;18.09;36.93;99222.72;5146257;28;20058;-76
2023/06/04 00:33:55;;;;;;;6.18;3.65;;;;;;;18.05;37.35;99213.25;5146767;28;20119;-76
2023/06/04 00:36:22;;;;;;;8.48;2.80;;;;;;;18.02;37.24;99215.34;5146492;28;20043;-76
2023/06/04 00:38:49;;;;;;;4.25;2.60;;;;;;;18.00;37.08;99220.00;5145329;28;20039;-76
2023/06/04 00:41:17;;;;;;;7.00;2.83;;;;;;;18.01;37.05;99211.81;5146124;28;20043;-76
2023/06/04 00:43:45;;;;;;;5.22;3.08;;;;;;;15.98;36.92;98877.81;5146033;28;20058;-76
2023/06/04 00:46:18;;;;;;;5.30;3.22;;;;;;;18.01;36.91;99216.31;5146664;27;20051;-76
2023/06/04 00:48:45;;;;;;;5.45;3.35;;;;;;;17.51;37.21;99146.50;5146687;27;20035;-76
2023/06/04 00:51:12;;;;;;;7.18;3.35;;;;;;;17.95;37.00;99225.75;5146394;27;20051;-76
2023/06/04 00:53:40;;;;;;;4.57;3.22;;;;;;;17.58;37.43;99174.47;5146623;28;20039;-76
2023/06/04 00:56:08;;;;;;;5.95;3.53;;;;;;;17.87;37.48;99223.75;5145349;28;20165;-76
2023/06/04 00:58:40;;;;;;;7.28;3.63;;;;;;;17.82;37.96;99223.28;5144735;28;20084;-76
2023/06/04 01:01:16;;;;;;;7.20;3.28;;;;;;;17.78;37.88;99224.53;5128177;28;20039;-76
2023/06/04 01:03:46;;;;;;;4.85;3.35;;;;;;;17.18;37.52;99124.31;5145127;28;20092;-77
2023/06/04 01:06:21;;;;;;;6.72;3.72;;;;;;;17.45;37.82;99179.19;5147275;27;20345;-76
2023/06/04 01:08:49;;;;;;;4.95;3.22;;;;;;;17.69;37.84;99213.78;5149659;27;20043;-76
2023/06/04 01:11:16;;;;;;;5.97;2.92;;;;;;;17.65;37.67;99210.50;5148853;27;20039;-76
2023/06/04 01:13:44;;;;;;;5.30;3.00;;;;;;;17.68;37.81;99209.41;5149167;27;20050;-76
2023/06/04 01:16:15;;;;;;;10.10;3.65;;;;;;;15.64;38.08;98877.94;5149812;27;20122;-76
2023/06/04 01:18:44;;;;;;;5.40;3.17;;;;;;;17.62;37.88;99219.66;5149961;27;20084;-76
2023/06/04 01:21:18;;;;;;;5.15;3.25;;;;;;;17.58;38.38;99212.84;5149444;27;20188;-76
2023/06/04 01:23:47;;;;;;;;;;;;;;;17.49;39.30;99213.63;5150154;27;20042;-76
2023/06/04 01:26:14;;;;;;;4.47;3.45;;;;;;;17.52;38.19;99229.44;5149630;27;19926;-76
2023/06/04 01:28:43;;;;;;;7.60;3.15;;;;;;;17.56;37.89;99216.63;5149872;27;20047;-77
2023/06/04 01:31:12;;;;;;;7.22;4.10;;;;;;;17.54;38.26;99208.72;5148419;27;20038;-76
2023/06/04 01:33:39;;;;;;;6.40;3.95;;;;;;;17.55;38.02;99207.75;5148338;27;20043;-76
2023/06/04 01:36:10;;;;;;;7.72;3.95;;;;;;;17.06;38.35;99124.50;5149164;27;20280;-76
2023/06/04 01:38:36;;;;;;;6.82;3.40;;;;;;;17.26;38.26;99166.53;5149055;27;20070;-76
2023/06/04 01:41:03;;;;;;;5.22;3.70;;;;;;;17.50;38.11;99203.75;5149069;27;20123;-76
2023/06/04 01:43:34;;;;;;;6.20;3.33;;;;;;;17.03;38.31;99128.31;5148991;27;20055;-76
2023/06/04 01:46:01;;;;;;;7.30;3.97;;;;;;;17.23;38.49;99156.09;5149071;27;20039;-76
2023/06/04 01:48:29;;;;;;;5.70;3.08;;;;;;;17.44;38.75;99197.09;5149164;27;20076;-76
2023/06/04 01:50:56;;;;;;;5.10;2.95;;;;;;;17.43;38.40;99195.41;5149179;27;20286;-76
2023/06/04 01:53:23;;;;;;;9.65;3.28;;;;;;;17.03;38.91;99133.66;5148841;27;20049;-76
2023/06/04 01:55:50;;;;;;;4.50;2.65;;;;;;;17.39;39.03;99210.03;5147904;27;20062;-76
2023/06/04 01:58:17;;;;;;;6.22;3.10;;;;;;;17.38;39.04;99212.84;5149242;27;20050;-76
2023/06/04 02:00:44;;;;;;;5.10;3.50;;;;;;;17.39;38.82;99214.56;5148695;27;20039;-76
2023/06/04 02:03:12;;;;;;;5.43;3.13;;;;;;;17.37;38.72;99225.41;5148689;27;20066;-76
2023/06/04 02:05:40;;;;;;;4.93;2.97;;;;;;;17.35;38.83;99211.28;5147640;27;20035;-76
2023/06/04 02:08:08;;;;;;;6.57;3.30;;;;;;;17.28;39.36;99210.09;5148852;27;20046;-76
2023/06/04 02:10:35;;;;;;;5.47;2.92;;;;;;;17.29;38.88;99203.78;5147770;27;20046;-76
2023/06/04 02:13:04;;;;;;;6.25;3.22;;;;;;;17.29;39.15;99209.97;5148703;27;20039;-77
2023/06/04 02:15:33;;;;;;;4.65;3.30;;;;;;;17.29;39.30;99209.97;5148363;27;20283;-76
2023/06/04 02:18:12;;;;;;;4.68;3.28;;;;;;;17.29;39.04;99209.97;5148503;27;20043;-76
2023/06/04 02:20:40;;;;;;;5.88;3.00;;;;;;;17.27;39.59;99211.94;5147706;27;20093;-76
2023/06/04 02:23:07;;;;;;;5.80;2.97;;;;;;;17.21;39.52;99209.78;5148517;27;20039;-77
2023/06/04 02:25:34;;;;;;;4.82;2.97;;;;;;;17.15;39.69;99212.09;5147631;27;20058;-77
2023/06/04 02:28:01;;;;;;;4.60;3.08;;;;;;;17.15;39.39;99210.28;5130293;27;20084;-77
2023/06/04 02:30:28;;;;;;;6.63;3.60;;;;;;;17.14;39.53;99210.41;5148030;27;20105;-77
2023/06/04 02:32:56;;;;;;;6.63;2.83;;;;;;;17.15;39.53;99207.59;5148008;27;20035;-77
2023/06/04 02:35:24;;;;;;;4.80;3.42;;;;;;;17.14;39.63;99205.88;5148305;27;20058;-77
2023/06/04 02:37:52;;;;;;;5.22;3.78;;;;;;;17.15;39.85;99204.91;5146989;27;20045;-77
2023/06/04 02:40:19;;;;;;;4.45;3.30;;;;;;;16.27;40.02;99068.69;5148177;27;20043;-76
2023/06/04 02:42:46;;;;;;;5.78;3.55;;;;;;;17.13;39.86;99204.19;5147638;27;20352;-76
2023/06/04 02:45:13;;;;;;;8.25;3.03;;;;;;;16.90;39.73;99170.47;5147804;27;20055;-76
2023/06/04 02:47:39;;;;;;;7.35;3.42;;;;;;;16.91;40.09;99173.03;5148305;27;20114;-77
2023/06/04 02:50:07;;;;;;;10.88;3.78;;;;;;;17.16;40.12;99222.69;5148251;27;20110;-76
2023/06/04 02:52:36;;;;;;;5.90;3.78;;;;;;;16.53;40.01;99103.09;5147935;27;20288;-77
2023/06/04 02:55:07;;;;;;;5.22;3.78;;;;;;;17.11;40.53;99208.81;5147597;27;20043;-77
2023/06/04 02:57:34;;;;;;;6.07;3.88;;;;;;;17.10;39.78;99209.81;5147592;27;20061;-76
2023/06/04 03:00:02;;;;;;;5.60;3.35;;;;;;;17.09;40.00;99207.25;5147596;27;20042;-77
2023/06/04 03:02:29;;;;;;;4.63;3.40;;;;;;;17.10;40.36;99208.97;5147742;27;20031;-76
2023/06/04 03:04:56;;;;;;;4.88;3.25;;;;;;;17.10;40.08;99211.63;5147374;27;20092;-75
2023/06/04 03:07:22;;;;;;;6.80;3.58;;;;;;;17.11;40.49;99214.19;5147405;27;20035;-76
2023/06/04 03:09:49;;;;;;;5.65;2.88;;;;;;;17.11;40.30;99224.03;5147286;27;20034;-76
2023/06/04 03:12:18;;;;;;;6.90;3.38;;;;;;;16.82;40.51;99172.94;5147354;27;20315;-76
2023/06/04 03:14:45;;;;;;;4.55;3.38;;;;;;;17.11;40.70;99221.38;5147532;27;20070;-77
2023/06/04 03:17:12;;;;;;;5.45;3.47;;;;;;;17.09;40.27;99220.66;5147821;27;20057;-76
2023/06/04 03:19:41;;;;;;;6.68;3.63;;;;;;;17.07;40.36;99217.25;5147141;27;20095;-76
2023/06/04 03:22:10;;;;;;;6.45;4.03;;;;;;;16.94;40.57;99190.66;5147437;27;20106;-75
2023/06/04 03:24:40;;;;;;;6.22;3.22;;;;;;;17.06;40.66;99213.72;5146247;27;20045;-75
2023/06/04 03:27:08;;;;;;;8.27;3.92;;;;;;;17.07;40.48;99222.59;5147043;27;20043;-76
2023/06/04 03:29:36;;;;;;;6.63;3.25;;;;;;;17.09;40.84;99231.34;5145565;27;20070;-76
2023/06/04 03:32:04;;;;;;;7.88;3.97;;;;;;;17.05;40.58;99233.44;5147242;27;20035;-76
2023/06/04 03:34:31;;;;;;;7.80;3.88;;;;;;;17.04;40.99;99237.09;5146901;27;20051;-76
2023/06/04 03:36:59;;;;;;;6.07;3.95;;;;;;;17.06;40.88;99245.00;5147501;27;20035;-76
2023/06/04 03:39:26;;;;;;;6.13;3.50;;;;;;;17.03;41.15;99246.09;5146757;27;20046;-76
2023/06/04 03:41:53;;;;;;;6.43;3.60;;;;;;;17.03;41.43;99240.75;5147376;27;20062;-76
2023/06/04 03:44:21;;;;;;;5.45;3.25;;;;;;;17.02;40.78;99232.84;5146608;27;20058;-76
2023/06/04 03:46:49;;;;;;;4.57;3.10;;;;;;;17.02;41.22;99232.84;5146009;27;20115;-76
2023/06/04 03:49:17;;;;;;;6.13;3.55;;;;;;;17.00;41.21;99244.53;5146993;27;20107;-75
2023/06/04 03:51:44;;;;;;;5.95;3.72;;;;;;;17.00;41.46;99236.50;5146662;27;20043;-76
2023/06/04 03:54:11;;;;;;;5.88;3.80;;;;;;;17.03;41.60;99250.63;5147189;27;20053;-76
2023/06/04 03:56:38;;;;;;;4.75;3.28;;;;;;;17.04;41.49;99247.81;5146925;27;20050;-76
2023/06/04 03:59:05;;;;;;;6.13;3.88;;;;;;;16.80;41.42;99205.19;5146477;27;20031;-76
2023/06/04 04:01:31;;;;;;;6.30;3.53;;;;;;;17.08;41.39;99243.91;5147140;27;20173;-76
2023/06/04 04:03:59;;;;;;;6.75;3.05;;;;;;;16.49;41.35;99157.84;5146819;28;20295;-76
2023/06/04 04:06:26;;;;;;;7.03;3.90;;;;;;;17.09;41.62;99255.44;5146530;28;20092;-76
2023/06/04 04:08:53;;;;;;;5.05;3.10;;;;;;;17.10;41.31;99251.78;5145596;28;20043;-76
2023/06/04 04:11:20;;;;;;;6.13;3.67;;;;;;;17.10;41.34;99252.66;5146625;27;20059;-76
2023/06/04 04:13:47;;;;;;;6.85;3.88;;;;;;;17.11;41.34;99245.47;5145618;28;20332;-76
2023/06/04 04:16:14;;;;;;;4.47;3.58;;;;;;;17.11;41.39;99248.13;5146723;28;20055;-76
2023/06/04 04:18:42;;;;;;;7.90;4.10;;;;;;;17.08;41.64;99253.75;5146023;28;20050;-76
2023/06/04 04:21:11;;;;;;;7.50;3.35;;;;;;;17.05;41.55;99251.34;5145599;28;20043;-76
2023/06/04 04:23:39;;;;;;;5.90;3.45;;;;;;;17.05;41.54;99262.03;5146613;28;20050;-76
2023/06/04 04:26:07;;;;;;;4.68;3.15;;;;;;;17.02;41.36;99243.56;5146593;28;20035;-76
2023/06/04 04:28:34;;;;;;;6.45;3.70;;;;;;;17.05;41.81;99246.81;5146609;28;20344;-76
2023/06/04 04:31:02;;;;;;;6.32;3.42;;;;;;;16.81;41.84;99211.41;5146330;28;20054;-76
2023/06/04 04:33:32;;;;;;;9.32;3.92;;;;;;;17.06;41.89;99267.28;5145453;28;20035;-76
2023/06/04 04:35:59;;;;;;;4.53;3.22;;;;;;;16.80;41.73;99215.91;5145353;28;20237;-76
2023/06/04 04:38:28;;;;;;;5.20;3.00;;;;;;;17.04;41.73;99253.16;5146460;28;20039;-76
2023/06/04 04:40:57;;;;;;;4.70;3.63;;;;;;;17.03;41.82;99250.63;5148448;27;20344;-76
2023/06/04 04:43:35;;;;;;;7.80;3.50;;;;;;;17.05;43.21;99254.00;5150333;27;20047;-76
2023/06/04 04:46:01;;;;;;;5.72;3.35;;;;;;;17.05;41.83;99262.03;5150661;27;20099;-76
2023/06/04 04:48:28;;;;;;;6.65;3.50;;;;;;;17.04;42.00;99263.03;5150157;27;20174;-76
2023/06/04 04:50:55;;;;;;;8.40;3.95;;;;;;;17.04;42.35;99263.03;5149234;27;20043;-76
2023/06/04 04:53:22;;;;;;;7.53;3.50;;;;;;;17.04;42.10;99261.19;5150591;27;20067;-76
2023/06/04 04:55:50;;;;;;;4.88;3.63;;;;;;;17.04;42.14;99260.34;5149983;27;20211;-76
2023/06/04 04:58:16;;;;;;;6.45;3.50;;;;;;;17.05;41.94;99264.72;5149957;27;20332;-76
2023/06/04 05:00:43;;;;;;;6.60;3.38;;;;;;;16.67;42.43;99213.38;5150075;27;20053;-76
2023/06/04 05:03:10;;;;;;;5.35;3.88;;;;;;;17.01;42.26;99258.78;5149810;27;20295;-76
2023/06/04 05:05:37;;;;;;;5.88;3.60;;;;;;;16.99;42.27;99256.22;5149754;27;20049;-76
2023/06/04 05:08:04;;;;;;;5.05;3.20;;;;;;;16.88;42.91;99248.22;5149759;27;20054;-75
2023/06/04 05:10:31;;;;;;;7.70;3.30;;;;;;;17.05;43.03;99265.56;5150230;27;20172;-76
2023/06/04 05:13:00;;;;;;;7.80;3.42;;;;;;;17.06;42.94;99277.97;5150219;27;20049;-76
2023/06/04 05:15:27;;;;;;;10.70;3.88;;;;;;;17.06;43.32;99277.13;5148779;27;20066;-76
2023/06/04 05:17:56;;;;;;;6.13;3.40;;;;;;;16.98;43.18;99265.22;5149326;27;20100;-76
2023/06/04 05:20:23;;;;;;;6.25;3.45;;;;;;;17.06;43.29;99274.44;5148539;27;20035;-76
2023/06/04 05:22:51;;;;;;;6.05;3.72;;;;;;;16.81;43.40;99241.69;5149343;27;20043;-76
2023/06/04 05:25:18;;;;;;;5.13;3.35;;;;;;;16.79;43.49;99254.34;5149282;27;20083;-76
2023/06/04 05:27:45;;;;;;;7.72;4.00;;;;;;;17.10;43.23;99300.84;5149366;27;20035;-76
2023/06/04 05:30:14;;;;;;;7.97;4.13;;;;;;;17.08;43.35;99292.09;5148740;27;20041;-75
2023/06/04 05:32:41;;;;;;;8.63;3.50;;;;;;;17.15;43.05;99300.47;5148433;27;20041;-76
2023/06/04 05:35:09;;;;;;;12.57;4.15;;;;;;;17.16;43.29;99294.13;5149216;27;20043;-76
2023/06/04 05:37:37;;;;;;;5.60;3.60;;;;;;;17.17;43.37;99303.88;5149145;27;20130;-76
2023/06/04 05:40:06;;;;;;;5.93;3.63;;;;;;;17.16;43.50;99294.97;5149572;27;20039;-76
2023/06/04 05:42:33;;;;;;;6.95;3.92;;;;;;;17.16;43.42;99299.50;5148713;27;20303;-76
2023/06/04 05:45:00;;;;;;;7.47;4.80;;;;;;;17.16;43.32;99300.34;5149279;27;20295;-76
2023/06/04 05:47:29;;;;;;;5.00;3.60;;;;;;;17.18;43.18;99308.25;5148092;27;20035;-75
2023/06/04 05:49:57;;;;;;;7.45;4.13;;;;;;;17.21;43.04;99306.19;5148246;27;20039;-76
2023/06/04 05:52:23;;;;;;;5.53;4.18;;;;;;;16.53;42.90;99202.94;5146899;27;20382;-76
2023/06/04 05:54:50;;;;;;;4.63;3.58;;;;;;;17.05;43.31;99295.03;5148795;27;20084;-76
2023/06/04 05:57:17;;;;;;;5.07;3.70;;;;;;;17.15;43.13;99308.50;5147932;27;20031;-76
2023/06/04 05:59:44;;;;;;;5.70;3.45;;;;;;;17.18;43.08;99314.44;5148686;27;20039;-76
2023/06/04 06:02:10;;;;;;;11.02;3.35;;;;;;;17.23;43.35;99316.78;5147816;27;20241;-76
2023/06/04 06:04:39;;;;;;;10.48;3.67;;;;;;;17.24;43.17;99322.00;5149201;27;20092;-75
2023/06/04 06:07:06;;;;;;;5.25;3.33;;;;;;;17.29;43.06;99326.97;5149143;27;20047;-76
2023/06/04 06:09:32;;;;;;;7.20;3.50;;;;;;;17.16;43.53;99302.16;5148534;27;20084;-76
2023/06/04 06:11:59;;;;;;;5.43;3.67;;;;;;;17.33;43.16;99333.78;5148873;27;20209;-76
2023/06/04 06:14:26;;;;;;;5.03;3.72;;;;;;;17.34;43.16;99330.13;5148834;27;20053;-76
2023/06/04 06:16:53;;;;;;;7.85;5.07;;;;;;;17.30;43.18;99326.84;5147568;27;20053;-76
2023/06/04 06:19:19;;;;;;;5.35;3.60;;;;;;;17.29;43.40;99321.63;5148901;27;20168;-76
2023/06/04 06:21:48;;;;;;;10.05;3.90;;;;;;;17.25;43.82;99323.72;5148584;27;20035;-76
2023/06/04 06:24:15;;;;;;;5.82;3.90;;;;;;;17.26;44.03;99327.22;5147414;27;20039;-76
2023/06/04 06:26:42;;;;;;;6.13;3.63;;;;;;;17.28;43.72;99339.53;5148497;27;20047;-76
2023/06/04 06:29:09;;;;;;;8.43;4.13;;;;;;;17.33;43.63;99333.78;5148131;27;20058;-76
2023/06/04 06:31:35;;;;;;;7.38;4.75;;;;;;;17.31;43.36;99325.03;5148068;27;20043;-76
2023/06/04 06:34:02;;;;;;;7.47;3.78;;;;;;;17.09;43.28;99300.97;5147751;27;20042;-76
2023/06/04 06:36:29;;;;;;;8.32;3.78;;;;;;;17.31;43.86;99335.75;5147982;27;20043;-76
2023/06/04 06:38:58;;;;;;;5.75;3.80;;;;;;;17.31;43.84;99336.59;5148186;27;20031;-76
2023/06/04 06:41:26;;;;;;;4.30;3.47;;;;;;;17.31;43.60;99335.75;5147917;27;20210;-76
2023/06/04 06:43:52;;;;;;;5.60;4.10;;;;;;;17.27;43.49;99337.81;5146778;27;20211;-76
2023/06/04 06:46:19;;;;;;;7.55;3.53;;;;;;;17.30;43.86;99339.41;5147873;27;20299;-76
2023/06/04 06:48:46;;;;;;;6.25;4.22;;;;;;;17.27;43.77;99332.47;5147980;27;20049;-76
2023/06/04 06:51:13;;;;;;;4.80;3.50;;;;;;;17.29;43.72;99338.53;5148236;27;20039;-76
2023/06/04 06:53:40;;;;;;;5.32;4.05;;;;;;;17.31;43.41;99347.31;5146960;27;20047;-76
2023/06/04 06:56:08;;;;;;;6.72;3.85;;;;;;;17.11;43.56;99315.09;5146737;27;20052;-76
2023/06/04 06:58:35;;;;;;;7.57;4.30;;;;;;;17.33;43.67;99349.84;5148111;27;20039;-76
2023/06/04 07:01:04;;;;;;;5.97;3.67;;;;;;;17.25;43.80;99352.31;5146879;27;20046;-76
2023/06/04 07:03:31;;;;;;;6.78;4.63;;;;;;;17.02;43.82;99314.00;5146610;27;20039;-76
2023/06/04 07:05:57;;;;;;;9.40;4.55;;;;;;;17.28;43.98;99352.91;5147532;27;20043;-76
2023/06/04 07:08:24;;;;;;;6.13;4.00;;;;;;;17.25;44.25;99346.97;5146554;27;20043;-76
2023/06/04 07:10:51;;;;;;;6.22;3.40;;;;;;;17.23;44.05;99348.91;5147472;27;20084;-76
2023/06/04 07:13:19;;;;;;;7.25;3.45;;;;;;;17.23;44.32;99352.44;5146371;27;20054;-76
2023/06/04 07:15:46;;;;;;;7.03;5.07;;;;;;;16.84;44.36;99302.13;5146443;27;20039;-76
2023/06/04 07:18:13;;;;;;;6.13;4.38;;;;;;;17.11;44.50;99350.75;5146443;27;20031;-76
2023/06/04 07:20:40;;;;;;;6.22;3.97;;;;;;;16.85;44.51;99309.19;5146083;27;20049;-76
2023/06/04 07:23:07;;;;;;;12.50;4.35;;;;;;;17.08;44.22;99344.78;5147680;27;20039;-76
2023/06/04 07:25:34;;;;;;;7.35;3.97;;;;;;;17.04;44.49;99340.66;5147340;27;20096;-76
2023/06/04 07:28:03;;;;;;;7.72;3.80;;;;;;;17.10;44.42;99349.03;5146611;27;20047;-76
2023/06/04 07:30:32;;;;;;;6.63;3.78;;;;;;;17.17;44.65;99339.53;5147297;27;20279;-75
2023/06/04 07:33:00;;;;;;;8.60;3.75;;;;;;;17.25;44.49;99346.97;5146318;27;20050;-76
2023/06/04 07:35:26;;;;;;;5.15;3.25;;;;;;;17.30;44.09;99348.28;5146921;27;20077;-76
2023/06/04 07:37:53;;;;;;;4.38;3.25;;;;;;;17.40;44.23;99343.00;5145987;27;20061;-76
2023/06/04 07:40:20;;;;;;;5.65;4.30;;;;;;;17.50;44.04;99345.75;5145877;27;20035;-76
2023/06/04 07:42:47;;;;;;;4.97;3.55;;;;;;;17.53;43.77;99340.16;5145926;27;20114;-76
2023/06/04 07:45:15;;;;;;;5.63;3.60;;;;;;;16.90;44.04;99238.25;5146708;27;20062;-76
2023/06/04 07:47:43;;;;;;;5.60;3.15;;;;;;;17.57;44.49;99337.09;5145966;27;20032;-76
2023/06/04 07:50:11;;;;;;;7.30;3.40;;;;;;;17.60;44.31;99349.38;5147270;27;20042;-76
2023/06/04 07:52:37;;;;;;;5.15;3.67;;;;;;;17.69;44.21;99350.47;5146837;27;20039;-76
2023/06/04 07:55:06;;;;;;;9.57;4.10;;;;;;;17.58;43.80;99317.34;5145979;27;20325;-75
2023/06/04 07:57:33;;;;;;;6.68;3.47;;;;;;;17.86;44.20;99353.41;5146730;27;20043;-76
2023/06/04 08:00:01;;;;;;;6.03;3.60;;;;;;;17.87;43.67;99357.78;5147082;27;20046;-76
2023/06/04 08:02:28;;;;;;;5.93;3.80;;;;;;;17.06;43.86;99212.88;5147017;28;20039;-76
2023/06/04 08:04:56;;;;;;;7.70;3.80;;;;;;;17.96;44.13;99350.78;5147115;28;20106;-76
2023/06/04 08:07:23;;;;;;;6.07;3.30;;;;;;;17.84;43.75;99317.00;5147150;28;20035;-76
2023/06/04 08:09:51;;;;;;;6.10;3.58;;;;;;;18.24;43.61;99357.31;5146551;28;20085;-76
2023/06/04 08:12:18;;;;;;;8.05;4.20;;;;;;;18.40;43.65;99352.31;5145238;28;20047;-76
2023/06/04 08:14:45;;;;;;;24.15;3.83;;;;;;;18.51;43.74;99359.41;5148007;27;20096;-76
2023/06/04 08:17:12;;;;;;;6.22;3.95;;;;;;;18.45;43.51;99330.44;5150103;27;20326;-76
2023/06/04 08:19:39;;;;;;;6.15;4.35;;;;;;;18.36;43.07;99313.31;5150440;27;20073;-76
2023/06/04 08:22:09;;;;;;;5.82;3.88;;;;;;;18.54;43.86;99349.28;5150728;27;20053;-76
2023/06/04 08:24:35;;;;;;;9.05;4.22;;;;;;;18.52;43.92;99362.00;5150578;27;20034;-76
2023/06/04 08:27:03;;;;;;;6.70;4.05;;;;;;;18.50;43.73;99360.41;5150548;27;20262;-76
2023/06/04 08:29:29;;;;;;;5.32;3.63;;;;;;;18.49;43.62;99350.66;5149907;27;20114;-76
2023/06/04 08:31:57;;;;;;;4.55;3.40;;;;;;;18.48;44.14;99363.22;5149577;27;20041;-76
2023/06/04 08:34:23;;;;;;;5.65;3.53;;;;;;;18.25;43.76;99313.41;5149499;27;20039;-76
2023/06/04 08:36:50;;;;;;;7.72;3.60;;;;;;;18.50;43.73;99361.25;5150656;27;20035;-76
2023/06/04 08:39:19;;;;;;;5.18;4.25;;;;;;;18.33;44.11;99348.47;5150322;27;20039;-76
2023/06/04 08:41:50;;;;;;;6.25;3.80;;;;;;;18.41;44.13;99380.00;5150554;27;20043;-76
2023/06/04 08:44:17;;;;;;;5.32;3.40;;;;;;;18.41;44.28;99374.63;5150101;27;20074;-76
2023/06/04 08:46:46;;;;;;;6.05;3.22;;;;;;;18.44;44.43;99382.41;5149214;27;20304;-76
2023/06/04 08:49:15;;;;;;;7.50;3.78;;;;;;;18.49;44.25;99383.69;5150269;27;20039;-76
2023/06/04 08:51:43;;;;;;;5.18;3.25;;;;;;;18.31;44.44;99352.25;5149970;27;20035;-76
2023/06/04 08:54:10;;;;;;;5.40;3.20;;;;;;;18.24;44.44;99358.16;5150621;27;20047;-76
2023/06/04 08:56:38;;;;;;;6.90;3.47;;;;;;;18.42;44.52;99382.53;5149343;27;20310;-76
2023/06/04 08:59:08;;;;;;;7.43;3.95;;;;;;;18.39;44.69;99384.63;5149101;27;20318;-76
2023/06/04 09:01:36;;;;;;;4.47;3.22;;;;;;;18.25;44.73;99375.94;5148694;27;20050;-76
2023/06/04 09:04:05;;;;;;;4.97;3.13;;;;;;;18.47;44.87;99392.88;5150283;27;20031;-76
2023/06/04 09:06:34;;;;;;;4.95;3.05;;;;;;;18.33;44.99;99345.78;5149685;27;20039;-76
2023/06/04 09:09:03;;;;;;;7.78;3.63;;;;;;;18.58;44.59;99380.25;5148886;27;20045;-76
2023/06/04 09:11:36;;;;;;;5.63;3.25;;;;;;;18.40;44.71;99357.66;5149491;27;20042;-76
2023/06/04 09:14:08;;;;;;;5.10;3.40;;;;;;;18.69;45.21;99387.34;5148527;27;20295;-76
2023/06/04 09:16:43;;;;;;;4.53;3.45;;;;;;;18.74;45.68;99387.78;5149816;27;20034;-76
2023/06/04 09:19:10;;;;;;;7.72;3.40;;;;;;;18.82;44.55;99396.03;5149572;27;20126;-77
2023/06/04 09:21:47;;;;;;;6.50;3.53;;;;;;;18.48;45.50;99335.53;5149479;27;20245;-77
2023/06/04 09:24:14;;;;;;;4.40;3.28;;;;;;;18.88;44.51;99395.47;5148584;27;20047;-77
2023/06/04 09:26:41;;;;;;;5.07;3.67;;;;;;;18.96;44.79;99393.94;5147358;27;20053;-77
2023/06/04 09:29:09;;;;;;;5.07;3.70;;;;;;;18.56;44.22;99323.16;5149950;27;20061;-77
2023/06/04 09:31:37;;;;;;;7.22;3.83;;;;;;;18.95;44.21;99394.94;5149665;27;20191;-77
2023/06/04 09:34:05;;;;;;;5.97;3.67;;;;;;;18.91;44.15;99392.53;5149138;27;20102;-77
2023/06/04 09:36:35;;;;;;;5.40;3.47;;;;;;;18.94;44.40;99395.91;5148279;27;20369;-77
2023/06/04 09:39:03;;;;;;;5.45;3.20;;;;;;;18.92;44.53;99378.09;5149048;27;20107;-77
2023/06/04 09:41:30;;;;;;;6.32;3.63;;;;;;;19.07;44.33;99393.84;5148142;27;20218;-76
2023/06/04 09:44:02;;;;;;;4.38;3.33;;;;;;;19.08;44.47;99393.69;5148795;27;20059;-77
2023/06/04 09:46:32;;;;;;;6.13;3.80;;;;;;;19.14;43.99;99401.22;5149052;27;20039;-77
2023/06/04 09:49:03;;;;;;;5.55;3.88;;;;;;;19.21;44.38;99396.97;5149473;27;20039;-77
2023/06/04 09:51:30;;;;;;;6.53;3.33;;;;;;;18.76;43.85;99299.06;5149210;27;20031;-77
2023/06/04 09:53:59;;;;;;;5.40;3.70;;;;;;;19.44;43.80;99397.63;5148926;27;20329;-76
2023/06/04 09:56:27;;;;;;;8.13;3.83;;;;;;;19.20;43.85;99351.44;5148002;27;20035;-77
2023/06/04 09:58:56;;;;;;;7.43;4.03;;;;;;;19.60;43.71;99386.31;5148805;27;20043;-76
2023/06/04 10:01:25;;;;;;;5.38;3.83;;;;;;;19.70;43.44;99380.94;5148918;27;20294;-76
2023/06/04 10:03:55;;;;;;;5.88;4.18;;;;;;;19.85;43.77;99390.28;5149013;27;20344;-77
2023/06/04 10:06:22;;;;;;;6.65;3.58;;;;;;;19.98;43.39;99396.22;5147642;27;20163;-76
2023/06/04 10:08:51;;;;;;;6.43;3.50;;;;;;;19.91;43.11;99346.69;5147587;27;20245;-76
2023/06/04 10:11:22;;;;;;;5.97;3.92;;;;;;;20.31;43.06;99386.84;5147698;27;20084;-76
2023/06/04 10:13:55;;;;;;;6.40;3.42;;;;;;;20.43;43.16;99387.53;5130713;27;20061;-76
2023/06/04 10:16:23;;;;;;;8.30;3.88;;;;;;;20.60;42.24;99388.59;5147584;27;20035;-76
2023/06/04 10:18:51;;;;;;;6.93;3.45;;;;;;;20.64;42.14;99381.94;5148286;27;20125;-76
2023/06/04 10:21:20;;;;;;;4.05;3.40;;;;;;;20.73;42.19;99379.19;5148455;27;20084;-76
2023/06/04 10:23:47;;;;;;;4.88;3.80;;;;;;;20.86;41.74;99380.69;5148274;27;20039;-76
2023/06/04 10:26:15;;;;;;;6.35;3.38;;;;;;;20.92;41.75;99372.00;5147371;27;20370;-76
2023/06/04 10:28:42;;;;;;;6.88;3.30;;;;;;;21.02;41.54;99372.81;5148539;27;20050;-76
2023/06/04 10:31:10;;;;;;;4.55;3.42;;;;;;;20.91;41.44;99321.84;5148120;27;20053;-76
2023/06/04 10:33:37;;;;;;;5.72;3.03;;;;;;;21.26;41.28;99370.41;5148364;27;20061;-76
2023/06/04 10:36:17;;;;;;;6.90;3.67;;;;;;;21.06;40.49;99325.75;5147992;27;20035;-76
2023/06/04 10:38:47;;;;;;;5.07;3.00;;;;;;;21.43;41.02;99369.59;5146767;27;20035;-76
2023/06/04 10:41:16;;;;;;;5.63;3.47;;;;;;;21.68;40.77;99372.50;5147935;27;20176;-76
2023/06/04 10:43:43;;;;;;;6.63;3.35;;;;;;;21.84;40.64;99363.75;5147731;27;20055;-76
2023/06/04 10:46:14;;;;;;;4.43;3.45;;;;;;;21.96;40.05;99370.59;5146859;27;20039;-76
2023/06/04 10:48:47;;;;;;;4.53;3.15;;;;;;;21.87;40.01;99364.28;5147728;27;20043;-76
2023/06/04 10:51:13;;;;;;;8.18;3.13;;;;;;;21.77;40.54;99372.44;5147937;27;20050;-76
2023/06/04 10:53:40;;;;;;;6.57;4.32;;;;;;;21.74;40.27;99377.28;5147663;27;20088;-76
2023/06/04 10:56:08;;;;;;;6.78;3.80;;;;;;;21.60;40.59;99378.69;5146792;27;20035;-76
2023/06/04 10:58:36;;;;;;;4.65;3.40;;;;;;;21.21;40.63;99342.22;5147857;27;20068;-76
2023/06/04 11:01:03;;;;;;;6.22;3.30;;;;;;;21.54;40.58;99391.94;5146610;27;20035;-77
2023/06/04 11:03:36;;;;;;;4.35;2.85;;;;;;;21.17;40.60;99352.47;5146586;27;20035;-77
2023/06/04 11:06:03;;;;;;;3.85;2.40;;;;;;;21.33;41.12;99390.38;5146579;27;20039;-76
2023/06/04 11:08:31;;;;;;;10.93;3.63;;;;;;;21.45;41.27;99388.31;5146479;27;20088;-76
2023/06/04 11:10:58;;;;;;;4.10;2.60;;;;;;;21.59;40.76;99393.16;5147171;27;20299;-76
2023/06/04 11:13:26;;;;;;;7.78;3.25;;;;;;;21.37;40.46;99358.56;5147584;27;20058;-76
2023/06/04 11:15:53;;;;;;;9.77;3.17;;;;;;;21.60;40.51;99402.09;5147094;27;20100;-76
2023/06/04 11:18:21;;;;;;;9.25;3.30;;;;;;;21.46;40.13;99363.88;5147259;27;20035;-76
2023/06/04 11:20:49;;;;;;;5.32;3.28;;;;;;;21.59;40.17;99358.09;5146106;27;20035;-76
2023/06/04 11:23:17;;;;;;;5.15;3.15;;;;;;;21.81;40.06;99399.13;5146178;27;20031;-76
2023/06/04 11:25:45;;;;;;;4.10;2.80;;;;;;;21.65;39.92;99399.78;5147476;27;20035;-77
2023/06/04 11:28:16;;;;;;;4.78;2.80;;;;;;;21.49;39.85;99397.78;5146821;27;20360;-77
2023/06/04 11:30:44;;;;;;;6.47;2.85;;;;;;;21.38;40.48;99404.25;5147219;27;20092;-76
2023/06/04 11:33:11;;;;;;;6.55;3.30;;;;;;;21.36;40.71;99394.63;5147220;27;20047;-77
2023/06/04 11:35:42;;;;;;;5.72;3.20;;;;;;;21.36;40.18;99390.06;5147465;27;20210;-77
2023/06/04 11:38:09;;;;;;;6.32;3.55;;;;;;;21.41;40.79;99384.22;5147037;27;20064;-77